RYR23AL EDLV-LEGE
Flight info
| Callsign | RYR23AL |
|---|---|
| Flight time | N/A |
| Altitude | 24000 |
| Route | VEBAK2R VEBAK Z283 MODRU Z717 MAS/N0451F360 UM617 CIV/N0453F370 N872 MEDIL DCT KOVIN DCT DUCRA UM728 RESMI UN857 DISAK DCT DIRMO DCT VALKU DCT ATSUP DCT MINSO DCT DEGOL DCT PPG A27 KANIG |
| Aircraft | B738/M-SDE2E3FGHIRWXY/LB1 |
Departure
| Time | 2026-05-04 16:36 |
|---|---|
| Airport | Weeze (Niederrhein) Airport (EDLV) |
Arrival
| Time | N/A |
|---|---|
| Airport | Girona-Costa Brava Airport (LEGE) |
| Time | Latitude | Longitude | Altitude | Speed | Heading |
|---|---|---|---|---|---|
| 2026-05-04 16:12 | 51.59919 | 6.14860 | 112 ft | 0 kts | 94° |
| 2026-05-04 16:28 | 51.59925 | 6.14801 | 111 ft | 4 kts | 140° |
| 2026-05-04 16:28 | 51.59996 | 6.14799 | 110 ft | 4 kts | 182° |
| 2026-05-04 16:29 | 51.60044 | 6.14862 | 111 ft | 1 kts | 272° |
| 2026-05-04 16:31 | 51.60049 | 6.14496 | 109 ft | 19 kts | 272° |
| 2026-05-04 16:32 | 51.60061 | 6.13878 | 113 ft | 17 kts | 272° |
| 2026-05-04 16:33 | 51.60069 | 6.13505 | 111 ft | 16 kts | 271° |
| 2026-05-04 16:33 | 51.60076 | 6.13136 | 108 ft | 20 kts | 271° |
| 2026-05-04 16:34 | 51.60090 | 6.12591 | 108 ft | 24 kts | 273° |
| 2026-05-04 16:34 | 51.60139 | 6.12455 | 109 ft | 9 kts | 1° |
| 2026-05-04 16:35 | 51.60285 | 6.12547 | 110 ft | 12 kts | 108° |
| 2026-05-04 16:35 | 51.60226 | 6.15066 | 124 ft | 160 kts | 93° |
| 2026-05-04 16:36 | 51.60166 | 6.16960 | 571 ft | 176 kts | 97° |
| 2026-05-04 16:36 | 51.60041 | 6.21085 | 1656 ft | 205 kts | 92° |
| 2026-05-04 16:37 | 51.59957 | 6.26098 | 2185 ft | 243 kts | 92° |
| 2026-05-04 16:37 | 51.59899 | 6.28913 | 2555 ft | 259 kts | 94° |
| 2026-05-04 16:37 | 51.59217 | 6.34544 | 4084 ft | 258 kts | 131° |
| 2026-05-04 16:38 | 51.55987 | 6.36568 | 5648 ft | 261 kts | 183° |
| 2026-05-04 16:39 | 51.50613 | 6.34555 | 7919 ft | 269 kts | 195° |
| 2026-05-04 16:39 | 51.46907 | 6.32939 | 9223 ft | 281 kts | 194° |
| 2026-05-04 16:40 | 51.43004 | 6.31296 | 10343 ft | 302 kts | 194° |
| 2026-05-04 16:40 | 51.38655 | 6.29500 | 10951 ft | 337 kts | 194° |
| 2026-05-04 16:41 | 51.34068 | 6.27620 | 12265 ft | 344 kts | 193° |
| 2026-05-04 16:41 | 51.27179 | 6.23895 | 14381 ft | 354 kts | 200° |
| 2026-05-04 16:42 | 51.20185 | 6.19717 | 16481 ft | 361 kts | 200° |
| 2026-05-04 16:43 | 51.15432 | 6.16943 | 17892 ft | 366 kts | 200° |
| 2026-05-04 16:43 | 51.10614 | 6.14149 | 19098 ft | 372 kts | 200° |
| 2026-05-04 16:43 | 51.08173 | 6.12738 | 19700 ft | 374 kts | 200° |
| 2026-05-04 16:44 | 51.00169 | 6.04781 | 21825 ft | 383 kts | 234° |
| 2026-05-04 16:45 | 50.97573 | 5.97313 | 22892 ft | 390 kts | 243° |
| 2026-05-04 16:46 | 50.95181 | 5.84795 | 24323 ft | 398 kts | 252° |
| 2026-05-04 16:46 | 50.93673 | 5.76305 | 25207 ft | 401 kts | 251° |
| 2026-05-04 16:47 | 50.92132 | 5.67763 | 26070 ft | 405 kts | 251° |
| 2026-05-04 16:47 | 50.90572 | 5.59092 | 26836 ft | 415 kts | 251° |
| 2026-05-04 16:48 | 50.88197 | 5.45939 | 28334 ft | 416 kts | 250° |
| 2026-05-04 16:48 | 50.87396 | 5.41527 | 28713 ft | 418 kts | 250° |
| 2026-05-04 16:49 | 50.85776 | 5.32635 | 29410 ft | 422 kts | 250° |
| 2026-05-04 16:49 | 50.84141 | 5.23706 | 30185 ft | 422 kts | 250° |
| 2026-05-04 16:50 | 50.82510 | 5.14828 | 31042 ft | 418 kts | 250° |
| 2026-05-04 16:50 | 50.80866 | 5.05943 | 31553 ft | 422 kts | 250° |
| 2026-05-04 16:51 | 50.79222 | 4.97069 | 32387 ft | 418 kts | 250° |
| 2026-05-04 16:51 | 50.78403 | 4.92661 | 32732 ft | 417 kts | 250° |
| 2026-05-04 16:51 | 50.76765 | 4.83871 | 33390 ft | 417 kts | 249° |
| 2026-05-04 16:52 | 50.75128 | 4.75121 | 34097 ft | 414 kts | 249° |
| 2026-05-04 16:52 | 50.74307 | 4.70746 | 34331 ft | 415 kts | 249° |
| 2026-05-04 16:53 | 50.72655 | 4.61985 | 34712 ft | 419 kts | 250° |
| 2026-05-04 16:53 | 50.70142 | 4.48797 | 35491 ft | 418 kts | 250° |
| 2026-05-04 16:54 | 50.69299 | 4.44404 | 35688 ft | 419 kts | 250° |
| 2026-05-04 16:55 | 50.65919 | 4.26873 | 36570 ft | 419 kts | 250° |
| 2026-05-04 16:55 | 50.64214 | 4.18084 | 36958 ft | 420 kts | 250° |
| 2026-05-04 16:56 | 50.59897 | 3.95981 | 36936 ft | 417 kts | 250° |
| 2026-05-04 16:57 | 50.56334 | 3.83811 | 36954 ft | 406 kts | 223° |
| 2026-05-04 16:58 | 50.48981 | 3.77387 | 36947 ft | 410 kts | 202° |
| 2026-05-04 16:58 | 50.46330 | 3.75666 | 36950 ft | 414 kts | 203° |
| 2026-05-04 17:00 | 50.30358 | 3.64901 | 36937 ft | 419 kts | 203° |
| 2026-05-04 17:01 | 50.17006 | 3.55900 | 36930 ft | 416 kts | 203° |
| 2026-05-04 17:02 | 50.06399 | 3.48785 | 36936 ft | 413 kts | 204° |
| 2026-05-04 17:03 | 49.98490 | 3.43502 | 36930 ft | 411 kts | 203° |